sensor_id;sensor_type;location;lat;lon;timestamp;P1;durP1;ratioP1;P2;durP2;ratioP2
42294;SDS011;27947;47.556;18.718;2023-07-16T00:02:19;8.43;;;5.45;;
42294;SDS011;27947;47.556;18.718;2023-07-16T00:04:44;9.35;;;5.35;;
42294;SDS011;27947;47.556;18.718;2023-07-16T00:07:10;7.78;;;5.20;;
42294;SDS011;27947;47.556;18.718;2023-07-16T00:09:36;7.60;;;4.88;;
42294;SDS011;27947;47.556;18.718;2023-07-16T00:12:01;7.78;;;5.03;;
42294;SDS011;27947;47.556;18.718;2023-07-16T00:14:26;9.05;;;5.45;;
42294;SDS011;27947;47.556;18.718;2023-07-16T00:16:52;8.45;;;5.35;;
42294;SDS011;27947;47.556;18.718;2023-07-16T00:19:17;8.85;;;5.40;;
42294;SDS011;27947;47.556;18.718;2023-07-16T00:21:42;7.07;;;4.90;;
42294;SDS011;27947;47.556;18.718;2023-07-16T00:24:08;12.00;;;5.82;;
42294;SDS011;27947;47.556;18.718;2023-07-16T00:26:33;8.65;;;5.15;;
42294;SDS011;27947;47.556;18.718;2023-07-16T00:28:58;8.98;;;5.65;;
42294;SDS011;27947;47.556;18.718;2023-07-16T00:31:24;10.85;;;5.25;;
42294;SDS011;27947;47.556;18.718;2023-07-16T00:33:49;6.97;;;5.15;;
42294;SDS011;27947;47.556;18.718;2023-07-16T00:36:14;12.25;;;4.95;;
42294;SDS011;27947;47.556;18.718;2023-07-16T00:38:40;11.20;;;5.35;;
42294;SDS011;27947;47.556;18.718;2023-07-16T00:41:06;8.95;;;5.22;;
42294;SDS011;27947;47.556;18.718;2023-07-16T00:43:31;6.93;;;5.22;;
42294;SDS011;27947;47.556;18.718;2023-07-16T00:45:57;8.10;;;5.38;;
42294;SDS011;27947;47.556;18.718;2023-07-16T00:48:23;5.78;;;5.07;;
42294;SDS011;27947;47.556;18.718;2023-07-16T00:50:49;7.43;;;5.20;;
42294;SDS011;27947;47.556;18.718;2023-07-16T00:53:14;6.88;;;5.07;;
42294;SDS011;27947;47.556;18.718;2023-07-16T00:55:40;9.38;;;5.43;;
42294;SDS011;27947;47.556;18.718;2023-07-16T00:58:06;8.40;;;5.10;;
42294;SDS011;27947;47.556;18.718;2023-07-16T01:00:35;6.25;;;4.82;;
42294;SDS011;27947;47.556;18.718;2023-07-16T01:03:01;7.50;;;5.07;;
42294;SDS011;27947;47.556;18.718;2023-07-16T01:05:29;9.65;;;5.13;;
42294;SDS011;27947;47.556;18.718;2023-07-16T01:07:57;5.82;;;5.22;;
42294;SDS011;27947;47.556;18.718;2023-07-16T01:10:25;9.13;;;5.05;;
42294;SDS011;27947;47.556;18.718;2023-07-16T01:12:51;10.18;;;5.15;;
42294;SDS011;27947;47.556;18.718;2023-07-16T01:15:18;5.93;;;4.85;;
42294;SDS011;27947;47.556;18.718;2023-07-16T01:17:43;7.38;;;5.30;;
42294;SDS011;27947;47.556;18.718;2023-07-16T01:20:08;9.75;;;5.57;;
42294;SDS011;27947;47.556;18.718;2023-07-16T01:30:05;8.10;;;4.75;;
42294;SDS011;27947;47.556;18.718;2023-07-16T01:32:34;7.60;;;5.40;;
42294;SDS011;27947;47.556;18.718;2023-07-16T01:35:02;8.38;;;4.90;;
42294;SDS011;27947;47.556;18.718;2023-07-16T01:37:27;9.05;;;4.88;;
42294;SDS011;27947;47.556;18.718;2023-07-16T01:39:53;5.38;;;4.65;;
42294;SDS011;27947;47.556;18.718;2023-07-16T01:42:18;9.13;;;5.30;;
42294;SDS011;27947;47.556;18.718;2023-07-16T01:44:43;7.30;;;4.55;;
42294;SDS011;27947;47.556;18.718;2023-07-16T01:47:10;8.65;;;5.25;;
42294;SDS011;27947;47.556;18.718;2023-07-16T01:49:36;6.65;;;4.63;;
42294;SDS011;27947;47.556;18.718;2023-07-16T01:52:02;7.43;;;5.03;;
42294;SDS011;27947;47.556;18.718;2023-07-16T01:54:28;8.45;;;5.28;;
42294;SDS011;27947;47.556;18.718;2023-07-16T01:56:53;6.90;;;5.10;;
42294;SDS011;27947;47.556;18.718;2023-07-16T01:59:18;5.88;;;5.07;;
42294;SDS011;27947;47.556;18.718;2023-07-16T02:01:44;16.95;;;5.40;;
42294;SDS011;27947;47.556;18.718;2023-07-16T02:04:09;6.82;;;5.60;;
42294;SDS011;27947;47.556;18.718;2023-07-16T02:06:35;9.85;;;5.65;;
42294;SDS011;27947;47.556;18.718;2023-07-16T02:09:00;5.80;;;5.18;;
42294;SDS011;27947;47.556;18.718;2023-07-16T02:11:25;7.20;;;5.38;;
42294;SDS011;27947;47.556;18.718;2023-07-16T02:13:51;7.57;;;5.35;;
42294;SDS011;27947;47.556;18.718;2023-07-16T02:16:16;7.13;;;5.47;;
42294;SDS011;27947;47.556;18.718;2023-07-16T02:18:41;9.80;;;6.28;;
42294;SDS011;27947;47.556;18.718;2023-07-16T02:21:07;9.48;;;5.75;;
42294;SDS011;27947;47.556;18.718;2023-07-16T02:23:32;10.32;;;5.93;;
42294;SDS011;27947;47.556;18.718;2023-07-16T02:25:57;6.50;;;5.28;;
42294;SDS011;27947;47.556;18.718;2023-07-16T02:28:23;6.15;;;5.53;;
42294;SDS011;27947;47.556;18.718;2023-07-16T02:30:49;11.10;;;6.20;;
42294;SDS011;27947;47.556;18.718;2023-07-16T02:33:14;7.10;;;5.18;;
42294;SDS011;27947;47.556;18.718;2023-07-16T02:35:39;8.35;;;5.97;;
42294;SDS011;27947;47.556;18.718;2023-07-16T02:38:05;8.98;;;5.88;;
42294;SDS011;27947;47.556;18.718;2023-07-16T02:40:30;7.72;;;5.93;;
42294;SDS011;27947;47.556;18.718;2023-07-16T02:42:55;8.43;;;5.85;;
42294;SDS011;27947;47.556;18.718;2023-07-16T02:45:21;7.72;;;5.65;;
42294;SDS011;27947;47.556;18.718;2023-07-16T02:47:46;8.02;;;5.80;;
42294;SDS011;27947;47.556;18.718;2023-07-16T02:50:11;9.55;;;5.82;;
42294;SDS011;27947;47.556;18.718;2023-07-16T02:52:37;7.90;;;5.70;;
42294;SDS011;27947;47.556;18.718;2023-07-16T02:55:02;9.82;;;6.00;;
42294;SDS011;27947;47.556;18.718;2023-07-16T02:57:28;12.02;;;6.38;;
42294;SDS011;27947;47.556;18.718;2023-07-16T02:59:53;8.55;;;6.00;;
42294;SDS011;27947;47.556;18.718;2023-07-16T03:02:19;11.43;;;6.28;;
42294;SDS011;27947;47.556;18.718;2023-07-16T03:04:44;7.55;;;6.13;;
42294;SDS011;27947;47.556;18.718;2023-07-16T03:07:11;9.13;;;5.93;;
42294;SDS011;27947;47.556;18.718;2023-07-16T03:09:37;9.00;;;6.10;;
42294;SDS011;27947;47.556;18.718;2023-07-16T03:12:04;8.38;;;6.40;;
42294;SDS011;27947;47.556;18.718;2023-07-16T03:14:29;7.93;;;6.00;;
42294;SDS011;27947;47.556;18.718;2023-07-16T03:16:55;8.20;;;6.18;;
42294;SDS011;27947;47.556;18.718;2023-07-16T03:19:20;8.57;;;6.45;;
42294;SDS011;27947;47.556;18.718;2023-07-16T03:21:46;10.57;;;6.25;;
42294;SDS011;27947;47.556;18.718;2023-07-16T03:24:11;8.63;;;6.35;;
42294;SDS011;27947;47.556;18.718;2023-07-16T03:26:37;10.50;;;6.88;;
42294;SDS011;27947;47.556;18.718;2023-07-16T03:29:02;6.95;;;6.25;;
42294;SDS011;27947;47.556;18.718;2023-07-16T03:31:28;8.43;;;6.00;;
42294;SDS011;27947;47.556;18.718;2023-07-16T03:33:53;11.60;;;6.80;;
42294;SDS011;27947;47.556;18.718;2023-07-16T03:36:19;8.20;;;6.47;;
42294;SDS011;27947;47.556;18.718;2023-07-16T03:38:44;8.80;;;6.80;;
42294;SDS011;27947;47.556;18.718;2023-07-16T03:41:10;8.63;;;6.03;;
42294;SDS011;27947;47.556;18.718;2023-07-16T03:43:36;9.50;;;5.80;;
42294;SDS011;27947;47.556;18.718;2023-07-16T03:46:15;8.77;;;6.07;;
42294;SDS011;27947;47.556;18.718;2023-07-16T03:48:41;8.40;;;6.90;;
42294;SDS011;27947;47.556;18.718;2023-07-16T03:51:07;9.48;;;7.30;;
42294;SDS011;27947;47.556;18.718;2023-07-16T03:53:32;8.25;;;6.90;;
42294;SDS011;27947;47.556;18.718;2023-07-16T03:55:57;12.43;;;6.35;;
42294;SDS011;27947;47.556;18.718;2023-07-16T03:58:23;8.45;;;6.43;;
42294;SDS011;27947;47.556;18.718;2023-07-16T04:00:48;10.30;;;7.00;;
42294;SDS011;27947;47.556;18.718;2023-07-16T04:03:13;8.90;;;6.68;;
42294;SDS011;27947;47.556;18.718;2023-07-16T04:05:39;8.05;;;6.47;;
42294;SDS011;27947;47.556;18.718;2023-07-16T04:08:05;8.50;;;6.63;;
42294;SDS011;27947;47.556;18.718;2023-07-16T04:10:30;9.60;;;6.25;;
42294;SDS011;27947;47.556;18.718;2023-07-16T04:12:56;10.13;;;6.45;;
42294;SDS011;27947;47.556;18.718;2023-07-16T04:15:21;13.23;;;6.95;;
42294;SDS011;27947;47.556;18.718;2023-07-16T04:17:46;10.15;;;6.40;;
42294;SDS011;27947;47.556;18.718;2023-07-16T04:20:12;8.85;;;6.70;;
42294;SDS011;27947;47.556;18.718;2023-07-16T04:22:37;8.02;;;6.63;;
42294;SDS011;27947;47.556;18.718;2023-07-16T04:25:03;7.15;;;6.30;;
42294;SDS011;27947;47.556;18.718;2023-07-16T04:27:29;13.00;;;6.57;;
42294;SDS011;27947;47.556;18.718;2023-07-16T04:29:54;9.98;;;7.47;;
42294;SDS011;27947;47.556;18.718;2023-07-16T04:32:19;8.43;;;6.70;;
42294;SDS011;27947;47.556;18.718;2023-07-16T04:34:45;10.50;;;7.15;;
42294;SDS011;27947;47.556;18.718;2023-07-16T04:37:10;9.15;;;7.00;;
42294;SDS011;27947;47.556;18.718;2023-07-16T04:39:35;11.73;;;7.63;;
42294;SDS011;27947;47.556;18.718;2023-07-16T04:42:01;11.15;;;7.35;;
42294;SDS011;27947;47.556;18.718;2023-07-16T04:44:26;10.48;;;7.30;;
42294;SDS011;27947;47.556;18.718;2023-07-16T04:46:51;22.45;;;7.40;;
42294;SDS011;27947;47.556;18.718;2023-07-16T04:49:17;13.02;;;7.70;;
42294;SDS011;27947;47.556;18.718;2023-07-16T04:51:42;9.27;;;7.35;;
42294;SDS011;27947;47.556;18.718;2023-07-16T04:54:07;7.40;;;6.70;;
42294;SDS011;27947;47.556;18.718;2023-07-16T04:56:33;8.07;;;6.95;;
42294;SDS011;27947;47.556;18.718;2023-07-16T04:58:58;10.90;;;7.65;;
42294;SDS011;27947;47.556;18.718;2023-07-16T05:01:23;9.20;;;7.53;;
42294;SDS011;27947;47.556;18.718;2023-07-16T05:03:50;9.23;;;7.07;;
42294;SDS011;27947;47.556;18.718;2023-07-16T05:06:16;10.15;;;7.53;;
42294;SDS011;27947;47.556;18.718;2023-07-16T05:08:42;10.55;;;7.13;;
42294;SDS011;27947;47.556;18.718;2023-07-16T05:11:07;11.13;;;7.70;;
42294;SDS011;27947;47.556;18.718;2023-07-16T05:13:32;10.27;;;7.72;;
42294;SDS011;27947;47.556;18.718;2023-07-16T05:15:58;10.23;;;7.18;;
42294;SDS011;27947;47.556;18.718;2023-07-16T05:18:23;15.07;;;7.82;;
42294;SDS011;27947;47.556;18.718;2023-07-16T05:20:49;10.80;;;7.65;;
42294;SDS011;27947;47.556;18.718;2023-07-16T05:23:14;10.55;;;7.20;;
42294;SDS011;27947;47.556;18.718;2023-07-16T05:25:45;10.48;;;6.93;;
42294;SDS011;27947;47.556;18.718;2023-07-16T05:28:11;11.02;;;6.93;;
42294;SDS011;27947;47.556;18.718;2023-07-16T05:30:36;7.43;;;6.18;;
42294;SDS011;27947;47.556;18.718;2023-07-16T05:33:01;9.95;;;6.60;;
42294;SDS011;27947;47.556;18.718;2023-07-16T05:35:27;7.30;;;6.30;;
42294;SDS011;27947;47.556;18.718;2023-07-16T05:37:52;8.52;;;6.30;;
42294;SDS011;27947;47.556;18.718;2023-07-16T05:40:17;9.45;;;7.30;;
42294;SDS011;27947;47.556;18.718;2023-07-16T05:42:42;20.15;;;7.38;;
42294;SDS011;27947;47.556;18.718;2023-07-16T05:45:08;10.13;;;6.82;;
42294;SDS011;27947;47.556;18.718;2023-07-16T05:47:33;8.63;;;6.72;;
42294;SDS011;27947;47.556;18.718;2023-07-16T05:49:59;14.05;;;7.18;;
42294;SDS011;27947;47.556;18.718;2023-07-16T05:52:24;14.48;;;7.00;;
42294;SDS011;27947;47.556;18.718;2023-07-16T05:54:49;10.88;;;6.40;;
42294;SDS011;27947;47.556;18.718;2023-07-16T05:57:15;9.45;;;5.50;;
42294;SDS011;27947;47.556;18.718;2023-07-16T05:59:40;9.00;;;5.93;;
42294;SDS011;27947;47.556;18.718;2023-07-16T06:02:06;10.23;;;6.40;;
42294;SDS011;27947;47.556;18.718;2023-07-16T06:04:31;13.63;;;6.60;;
42294;SDS011;27947;47.556;18.718;2023-07-16T06:06:57;11.88;;;5.65;;
42294;SDS011;27947;47.556;18.718;2023-07-16T06:09:22;9.88;;;5.60;;
42294;SDS011;27947;47.556;18.718;2023-07-16T06:11:48;8.85;;;5.85;;
42294;SDS011;27947;47.556;18.718;2023-07-16T06:14:13;8.32;;;5.20;;
42294;SDS011;27947;47.556;18.718;2023-07-16T06:16:39;12.95;;;5.30;;
42294;SDS011;27947;47.556;18.718;2023-07-16T06:19:04;6.03;;;5.07;;
42294;SDS011;27947;47.556;18.718;2023-07-16T06:21:29;9.27;;;5.05;;
42294;SDS011;27947;47.556;18.718;2023-07-16T06:23:55;7.40;;;5.20;;
42294;SDS011;27947;47.556;18.718;2023-07-16T06:26:20;9.10;;;5.38;;
42294;SDS011;27947;47.556;18.718;2023-07-16T06:28:45;8.45;;;5.38;;
42294;SDS011;27947;47.556;18.718;2023-07-16T06:31:14;8.80;;;5.50;;
42294;SDS011;27947;47.556;18.718;2023-07-16T06:33:40;7.38;;;5.18;;
42294;SDS011;27947;47.556;18.718;2023-07-16T06:36:05;6.63;;;4.60;;
42294;SDS011;27947;47.556;18.718;2023-07-16T06:38:30;5.35;;;4.35;;
42294;SDS011;27947;47.556;18.718;2023-07-16T06:40:55;12.30;;;5.20;;
42294;SDS011;27947;47.556;18.718;2023-07-16T06:43:21;6.72;;;4.78;;
42294;SDS011;27947;47.556;18.718;2023-07-16T06:45:48;10.55;;;4.90;;
42294;SDS011;27947;47.556;18.718;2023-07-16T06:48:13;11.63;;;4.75;;
42294;SDS011;27947;47.556;18.718;2023-07-16T06:50:39;9.35;;;5.00;;
42294;SDS011;27947;47.556;18.718;2023-07-16T06:53:04;20.52;;;5.15;;
42294;SDS011;27947;47.556;18.718;2023-07-16T06:55:29;7.38;;;4.40;;
42294;SDS011;27947;47.556;18.718;2023-07-16T06:57:55;8.13;;;4.13;;
42294;SDS011;27947;47.556;18.718;2023-07-16T07:00:20;7.70;;;4.22;;
42294;SDS011;27947;47.556;18.718;2023-07-16T07:02:45;5.70;;;4.25;;
42294;SDS011;27947;47.556;18.718;2023-07-16T07:05:11;8.88;;;4.70;;
42294;SDS011;27947;47.556;18.718;2023-07-16T07:07:36;6.63;;;4.38;;
42294;SDS011;27947;47.556;18.718;2023-07-16T07:10:02;13.77;;;4.80;;
42294;SDS011;27947;47.556;18.718;2023-07-16T07:12:27;10.43;;;4.25;;
42294;SDS011;27947;47.556;18.718;2023-07-16T07:14:52;7.57;;;4.50;;
42294;SDS011;27947;47.556;18.718;2023-07-16T07:17:18;10.02;;;4.68;;
42294;SDS011;27947;47.556;18.718;2023-07-16T07:19:43;7.60;;;4.50;;
42294;SDS011;27947;47.556;18.718;2023-07-16T07:22:09;9.77;;;4.70;;
42294;SDS011;27947;47.556;18.718;2023-07-16T07:24:34;6.35;;;3.67;;
42294;SDS011;27947;47.556;18.718;2023-07-16T07:26:59;9.07;;;4.95;;
42294;SDS011;27947;47.556;18.718;2023-07-16T07:29:25;4.63;;;4.00;;
42294;SDS011;27947;47.556;18.718;2023-07-16T07:31:50;10.23;;;4.50;;
42294;SDS011;27947;47.556;18.718;2023-07-16T07:34:15;6.75;;;4.70;;
42294;SDS011;27947;47.556;18.718;2023-07-16T07:36:41;7.35;;;4.50;;
42294;SDS011;27947;47.556;18.718;2023-07-16T07:39:06;9.13;;;4.68;;
42294;SDS011;27947;47.556;18.718;2023-07-16T07:41:32;11.70;;;4.88;;
42294;SDS011;27947;47.556;18.718;2023-07-16T07:43:57;11.27;;;4.60;;
42294;SDS011;27947;47.556;18.718;2023-07-16T07:46:23;10.00;;;4.30;;
42294;SDS011;27947;47.556;18.718;2023-07-16T07:48:48;8.00;;;4.30;;
42294;SDS011;27947;47.556;18.718;2023-07-16T07:51:13;5.32;;;3.78;;
42294;SDS011;27947;47.556;18.718;2023-07-16T07:53:39;8.15;;;4.53;;
42294;SDS011;27947;47.556;18.718;2023-07-16T07:56:04;6.38;;;4.00;;
42294;SDS011;27947;47.556;18.718;2023-07-16T07:58:29;11.75;;;4.50;;
42294;SDS011;27947;47.556;18.718;2023-07-16T08:00:55;7.82;;;4.22;;
42294;SDS011;27947;47.556;18.718;2023-07-16T08:03:20;8.43;;;4.63;;
42294;SDS011;27947;47.556;18.718;2023-07-16T08:05:47;5.55;;;4.32;;
42294;SDS011;27947;47.556;18.718;2023-07-16T08:08:13;7.15;;;4.45;;
42294;SDS011;27947;47.556;18.718;2023-07-16T08:10:38;7.55;;;4.32;;
42294;SDS011;27947;47.556;18.718;2023-07-16T08:13:05;9.45;;;4.07;;
42294;SDS011;27947;47.556;18.718;2023-07-16T08:15:31;10.88;;;4.82;;
42294;SDS011;27947;47.556;18.718;2023-07-16T08:17:56;11.32;;;4.88;;
42294;SDS011;27947;47.556;18.718;2023-07-16T08:20:24;5.57;;;4.18;;
42294;SDS011;27947;47.556;18.718;2023-07-16T08:22:50;7.07;;;4.05;;
42294;SDS011;27947;47.556;18.718;2023-07-16T08:25:15;5.25;;;4.57;;
42294;SDS011;27947;47.556;18.718;2023-07-16T08:27:40;7.47;;;4.38;;
42294;SDS011;27947;47.556;18.718;2023-07-16T08:30:06;7.68;;;4.20;;
42294;SDS011;27947;47.556;18.718;2023-07-16T08:32:31;10.45;;;4.13;;
42294;SDS011;27947;47.556;18.718;2023-07-16T08:34:57;5.65;;;4.15;;
42294;SDS011;27947;47.556;18.718;2023-07-16T08:37:22;8.73;;;4.60;;
42294;SDS011;27947;47.556;18.718;2023-07-16T08:39:50;7.32;;;4.18;;
42294;SDS011;27947;47.556;18.718;2023-07-16T08:42:16;10.70;;;4.97;;
42294;SDS011;27947;47.556;18.718;2023-07-16T08:44:41;8.07;;;3.97;;
42294;SDS011;27947;47.556;18.718;2023-07-16T08:47:06;9.35;;;4.90;;
42294;SDS011;27947;47.556;18.718;2023-07-16T08:49:32;10.55;;;4.53;;
42294;SDS011;27947;47.556;18.718;2023-07-16T08:51:58;6.72;;;4.25;;
42294;SDS011;27947;47.556;18.718;2023-07-16T08:54:25;8.07;;;4.43;;
42294;SDS011;27947;47.556;18.718;2023-07-16T08:56:51;8.00;;;4.35;;
42294;SDS011;27947;47.556;18.718;2023-07-16T08:59:17;11.82;;;4.53;;
42294;SDS011;27947;47.556;18.718;2023-07-16T09:01:42;8.38;;;4.70;;
42294;SDS011;27947;47.556;18.718;2023-07-16T09:04:07;6.43;;;4.68;;
42294;SDS011;27947;47.556;18.718;2023-07-16T09:06:33;10.55;;;4.63;;
42294;SDS011;27947;47.556;18.718;2023-07-16T09:08:58;10.98;;;4.65;;
42294;SDS011;27947;47.556;18.718;2023-07-16T09:11:24;6.80;;;4.60;;
42294;SDS011;27947;47.556;18.718;2023-07-16T09:13:49;8.32;;;4.72;;
42294;SDS011;27947;47.556;18.718;2023-07-16T09:16:17;8.25;;;4.78;;
42294;SDS011;27947;47.556;18.718;2023-07-16T09:18:43;8.50;;;4.50;;
42294;SDS011;27947;47.556;18.718;2023-07-16T09:21:08;9.05;;;4.70;;
42294;SDS011;27947;47.556;18.718;2023-07-16T09:23:34;7.78;;;4.70;;
42294;SDS011;27947;47.556;18.718;2023-07-16T09:25:59;7.97;;;4.88;;
42294;SDS011;27947;47.556;18.718;2023-07-16T09:28:25;6.97;;;4.35;;
42294;SDS011;27947;47.556;18.718;2023-07-16T09:30:51;9.90;;;4.72;;
42294;SDS011;27947;47.556;18.718;2023-07-16T09:33:17;7.00;;;4.43;;
42294;SDS011;27947;47.556;18.718;2023-07-16T09:35:42;12.80;;;4.78;;
42294;SDS011;27947;47.556;18.718;2023-07-16T09:38:08;7.38;;;4.53;;
42294;SDS011;27947;47.556;18.718;2023-07-16T09:40:35;9.75;;;4.53;;
42294;SDS011;27947;47.556;18.718;2023-07-16T09:43:00;11.88;;;5.30;;
42294;SDS011;27947;47.556;18.718;2023-07-16T09:45:26;11.57;;;4.40;;
42294;SDS011;27947;47.556;18.718;2023-07-16T09:47:52;6.97;;;4.32;;
42294;SDS011;27947;47.556;18.718;2023-07-16T09:50:17;8.20;;;3.90;;
42294;SDS011;27947;47.556;18.718;2023-07-16T09:52:43;10.48;;;3.88;;
42294;SDS011;27947;47.556;18.718;2023-07-16T09:55:08;11.32;;;4.60;;
42294;SDS011;27947;47.556;18.718;2023-07-16T09:57:35;7.75;;;4.10;;
42294;SDS011;27947;47.556;18.718;2023-07-16T10:00:02;7.50;;;4.30;;
42294;SDS011;27947;47.556;18.718;2023-07-16T10:02:38;5.90;;;4.10;;
42294;SDS011;27947;47.556;18.718;2023-07-16T10:05:16;9.25;;;4.60;;
42294;SDS011;27947;47.556;18.718;2023-07-16T10:07:42;4.05;;;3.50;;
42294;SDS011;27947;47.556;18.718;2023-07-16T10:10:10;8.57;;;4.07;;
42294;SDS011;27947;47.556;18.718;2023-07-16T10:12:37;7.60;;;3.90;;
42294;SDS011;27947;47.556;18.718;2023-07-16T10:15:03;6.82;;;3.63;;
42294;SDS011;27947;47.556;18.718;2023-07-16T10:17:30;5.20;;;3.28;;
42294;SDS011;27947;47.556;18.718;2023-07-16T10:22:41;5.20;;;4.25;;
42294;SDS011;27947;47.556;18.718;2023-07-16T10:25:10;12.40;;;4.40;;
42294;SDS011;27947;47.556;18.718;2023-07-16T10:27:47;9.55;;;4.53;;
42294;SDS011;27947;47.556;18.718;2023-07-16T10:30:13;8.35;;;4.13;;
42294;SDS011;27947;47.556;18.718;2023-07-16T10:32:38;9.95;;;4.53;;
42294;SDS011;27947;47.556;18.718;2023-07-16T10:35:04;9.60;;;3.97;;
42294;SDS011;27947;47.556;18.718;2023-07-16T10:37:30;13.32;;;4.55;;
42294;SDS011;27947;47.556;18.718;2023-07-16T10:39:59;8.70;;;4.45;;
42294;SDS011;27947;47.556;18.718;2023-07-16T10:42:25;9.52;;;3.85;;
42294;SDS011;27947;47.556;18.718;2023-07-16T10:44:51;5.25;;;3.70;;
42294;SDS011;27947;47.556;18.718;2023-07-16T10:47:39;8.23;;;4.35;;
42294;SDS011;27947;47.556;18.718;2023-07-16T10:50:04;9.20;;;4.55;;
42294;SDS011;27947;47.556;18.718;2023-07-16T10:52:29;9.48;;;4.55;;
42294;SDS011;27947;47.556;18.718;2023-07-16T10:54:55;7.80;;;3.80;;
42294;SDS011;27947;47.556;18.718;2023-07-16T10:57:24;9.70;;;3.70;;
42294;SDS011;27947;47.556;18.718;2023-07-16T10:59:53;8.68;;;4.03;;
42294;SDS011;27947;47.556;18.718;2023-07-16T11:02:20;7.97;;;4.30;;
42294;SDS011;27947;47.556;18.718;2023-07-16T11:04:46;9.15;;;4.60;;
42294;SDS011;27947;47.556;18.718;2023-07-16T11:07:12;14.23;;;4.90;;
42294;SDS011;27947;47.556;18.718;2023-07-16T11:12:08;12.63;;;4.68;;
42294;SDS011;27947;47.556;18.718;2023-07-16T11:14:34;11.90;;;4.18;;
42294;SDS011;27947;47.556;18.718;2023-07-16T11:17:06;10.20;;;5.07;;
42294;SDS011;27947;47.556;18.718;2023-07-16T11:19:32;11.55;;;4.70;;
42294;SDS011;27947;47.556;18.718;2023-07-16T11:21:59;9.32;;;4.93;;
42294;SDS011;27947;47.556;18.718;2023-07-16T11:24:25;8.77;;;4.80;;
42294;SDS011;27947;47.556;18.718;2023-07-16T11:26:52;8.15;;;5.00;;
42294;SDS011;27947;47.556;18.718;2023-07-16T11:29:18;9.80;;;4.60;;
42294;SDS011;27947;47.556;18.718;2023-07-16T11:31:44;11.10;;;4.70;;
42294;SDS011;27947;47.556;18.718;2023-07-16T11:34:13;9.85;;;4.93;;
42294;SDS011;27947;47.556;18.718;2023-07-16T11:36:39;10.98;;;4.78;;
42294;SDS011;27947;47.556;18.718;2023-07-16T11:39:04;12.10;;;5.38;;
42294;SDS011;27947;47.556;18.718;2023-07-16T11:41:30;7.22;;;4.68;;
42294;SDS011;27947;47.556;18.718;2023-07-16T11:43:59;10.05;;;5.00;;
42294;SDS011;27947;47.556;18.718;2023-07-16T11:46:24;13.27;;;4.65;;
42294;SDS011;27947;47.556;18.718;2023-07-16T11:48:49;12.52;;;5.43;;
42294;SDS011;27947;47.556;18.718;2023-07-16T11:51:15;14.70;;;5.10;;
42294;SDS011;27947;47.556;18.718;2023-07-16T11:53:40;7.57;;;4.43;;
42294;SDS011;27947;47.556;18.718;2023-07-16T11:56:05;12.45;;;5.03;;
42294;SDS011;27947;47.556;18.718;2023-07-16T11:58:31;10.38;;;5.03;;
42294;SDS011;27947;47.556;18.718;2023-07-16T12:00:56;12.25;;;5.63;;
42294;SDS011;27947;47.556;18.718;2023-07-16T12:03:22;10.90;;;5.00;;
42294;SDS011;27947;47.556;18.718;2023-07-16T12:05:47;15.73;;;6.25;;
42294;SDS011;27947;47.556;18.718;2023-07-16T12:08:12;5.93;;;4.65;;
42294;SDS011;27947;47.556;18.718;2023-07-16T12:10:40;12.70;;;5.65;;
42294;SDS011;27947;47.556;18.718;2023-07-16T12:13:05;12.75;;;5.28;;
42294;SDS011;27947;47.556;18.718;2023-07-16T12:15:30;18.52;;;5.30;;
42294;SDS011;27947;47.556;18.718;2023-07-16T12:17:56;10.27;;;5.18;;
42294;SDS011;27947;47.556;18.718;2023-07-16T12:20:21;18.20;;;5.65;;
42294;SDS011;27947;47.556;18.718;2023-07-16T12:22:46;17.58;;;5.40;;
42294;SDS011;27947;47.556;18.718;2023-07-16T12:25:12;8.48;;;5.10;;
42294;SDS011;27947;47.556;18.718;2023-07-16T12:27:37;19.67;;;6.05;;
42294;SDS011;27947;47.556;18.718;2023-07-16T12:30:02;14.55;;;5.65;;
42294;SDS011;27947;47.556;18.718;2023-07-16T12:32:28;12.30;;;5.53;;
42294;SDS011;27947;47.556;18.718;2023-07-16T12:34:53;11.05;;;5.97;;
42294;SDS011;27947;47.556;18.718;2023-07-16T12:37:20;14.40;;;5.45;;
42294;SDS011;27947;47.556;18.718;2023-07-16T12:39:45;13.13;;;5.45;;
42294;SDS011;27947;47.556;18.718;2023-07-16T12:42:10;11.02;;;5.15;;
42294;SDS011;27947;47.556;18.718;2023-07-16T12:44:36;12.23;;;5.68;;
42294;SDS011;27947;47.556;18.718;2023-07-16T12:47:01;15.27;;;5.40;;
42294;SDS011;27947;47.556;18.718;2023-07-16T12:49:27;11.02;;;5.07;;
42294;SDS011;27947;47.556;18.718;2023-07-16T12:51:52;12.23;;;5.22;;
42294;SDS011;27947;47.556;18.718;2023-07-16T12:54:18;7.93;;;5.30;;
42294;SDS011;27947;47.556;18.718;2023-07-16T12:56:43;9.80;;;5.78;;
42294;SDS011;27947;47.556;18.718;2023-07-16T12:59:08;11.63;;;5.18;;
42294;SDS011;27947;47.556;18.718;2023-07-16T13:01:34;15.65;;;5.40;;
42294;SDS011;27947;47.556;18.718;2023-07-16T13:03:59;11.07;;;5.88;;
42294;SDS011;27947;47.556;18.718;2023-07-16T13:06:24;11.45;;;5.60;;
42294;SDS011;27947;47.556;18.718;2023-07-16T13:08:50;13.07;;;5.25;;
42294;SDS011;27947;47.556;18.718;2023-07-16T13:11:15;8.80;;;5.47;;
42294;SDS011;27947;47.556;18.718;2023-07-16T13:13:40;9.02;;;5.40;;
42294;SDS011;27947;47.556;18.718;2023-07-16T13:16:07;10.25;;;5.22;;
42294;SDS011;27947;47.556;18.718;2023-07-16T13:18:32;8.55;;;5.15;;
42294;SDS011;27947;47.556;18.718;2023-07-16T13:20:57;10.43;;;6.00;;
42294;SDS011;27947;47.556;18.718;2023-07-16T13:23:23;13.95;;;5.40;;
42294;SDS011;27947;47.556;18.718;2023-07-16T13:25:48;9.07;;;5.13;;
42294;SDS011;27947;47.556;18.718;2023-07-16T13:28:16;11.93;;;5.80;;
42294;SDS011;27947;47.556;18.718;2023-07-16T13:30:41;9.73;;;4.85;;
42294;SDS011;27947;47.556;18.718;2023-07-16T13:33:07;12.02;;;5.22;;
42294;SDS011;27947;47.556;18.718;2023-07-16T13:35:32;5.85;;;4.47;;
42294;SDS011;27947;47.556;18.718;2023-07-16T13:37:57;8.05;;;5.57;;
42294;SDS011;27947;47.556;18.718;2023-07-16T13:40:23;12.48;;;5.30;;
42294;SDS011;27947;47.556;18.718;2023-07-16T13:42:48;14.93;;;6.40;;
42294;SDS011;27947;47.556;18.718;2023-07-16T13:45:14;7.50;;;5.28;;
42294;SDS011;27947;47.556;18.718;2023-07-16T13:47:39;12.45;;;5.32;;
42294;SDS011;27947;47.556;18.718;2023-07-16T13:50:04;9.00;;;5.35;;
42294;SDS011;27947;47.556;18.718;2023-07-16T13:52:30;10.73;;;5.35;;
42294;SDS011;27947;47.556;18.718;2023-07-16T13:54:55;8.40;;;5.45;;
42294;SDS011;27947;47.556;18.718;2023-07-16T13:57:21;8.85;;;5.57;;
42294;SDS011;27947;47.556;18.718;2023-07-16T13:59:46;8.15;;;5.70;;
42294;SDS011;27947;47.556;18.718;2023-07-16T14:02:11;8.13;;;5.75;;
42294;SDS011;27947;47.556;18.718;2023-07-16T14:04:37;7.50;;;5.45;;
42294;SDS011;27947;47.556;18.718;2023-07-16T14:07:02;11.02;;;6.13;;
42294;SDS011;27947;47.556;18.718;2023-07-16T14:09:27;10.32;;;5.20;;
42294;SDS011;27947;47.556;18.718;2023-07-16T14:11:53;11.02;;;5.40;;
42294;SDS011;27947;47.556;18.718;2023-07-16T14:14:18;9.85;;;5.45;;
42294;SDS011;27947;47.556;18.718;2023-07-16T14:16:44;7.55;;;4.75;;
42294;SDS011;27947;47.556;18.718;2023-07-16T14:19:09;8.68;;;4.82;;
42294;SDS011;27947;47.556;18.718;2023-07-16T14:21:34;11.45;;;4.88;;
42294;SDS011;27947;47.556;18.718;2023-07-16T14:24:00;9.40;;;4.95;;
42294;SDS011;27947;47.556;18.718;2023-07-16T14:26:25;9.52;;;5.38;;
42294;SDS011;27947;47.556;18.718;2023-07-16T14:28:51;10.30;;;5.35;;
42294;SDS011;27947;47.556;18.718;2023-07-16T14:31:16;12.65;;;5.38;;
42294;SDS011;27947;47.556;18.718;2023-07-16T14:33:41;8.75;;;5.68;;
42294;SDS011;27947;47.556;18.718;2023-07-16T14:36:07;9.50;;;5.25;;